Time;durP1;ratioP1;P1;durP2;ratioP2;P2;SDS_P1;SDS_P2;PMS_P1;PMS_P2;Temp;Humidity;BMP_temperature;BMP_pressure;BME280_temperature;BME280_humidity;BME280_pressure;Samples;Min_cycle;Max_cycle;Signal;HPM_P1;HPM_P2
2022/05/30 00:00:31;;;;;;;5.55;2.00;;;11.70;74.00;;;;;;4977792;28;20049;-73
2022/05/30 00:02:57;;;;;;;4.65;1.70;;;11.70;74.00;;;;;;4977544;28;20034;-64
2022/05/30 00:05:24;;;;;;;5.07;1.10;;;11.70;73.40;;;;;;4977499;28;20061;-64
2022/05/30 00:07:50;;;;;;;10.18;1.80;;;11.80;73.60;;;;;;4977506;28;20582;-65
2022/05/30 00:10:17;;;;;;;4.80;1.25;;;11.70;73.70;;;;;;4977567;28;20514;-65
2022/05/30 00:12:43;;;;;;;3.83;1.45;;;11.80;73.40;;;;;;4977609;28;20038;-65
2022/05/30 00:15:12;;;;;;;4.40;1.23;;;11.70;73.50;;;;;;4977006;28;20041;-64
2022/05/30 00:17:38;;;;;;;4.80;1.48;;;11.70;73.70;;;;;;4977435;28;20126;-64
2022/05/30 00:20:05;;;;;;;2.08;1.20;;;11.70;73.60;;;;;;4992337;28;20122;-65
2022/05/30 00:22:31;;;;;;;4.00;1.42;;;11.60;73.30;;;;;;4977310;28;20076;-64
2022/05/30 00:24:57;;;;;;;2.70;1.35;;;11.70;73.50;;;;;;4977212;28;20034;-73
2022/05/30 00:27:23;;;;;;;6.55;1.70;;;11.60;73.70;;;;;;4976984;28;20074;-64
2022/05/30 00:29:49;;;;;;;4.38;1.42;;;11.70;73.70;;;;;;4977086;28;20538;-64
2022/05/30 00:32:14;;;;;;;4.05;1.10;;;11.70;73.40;;;;;;4977198;28;20050;-73
2022/05/30 00:34:40;;;;;;;5.95;1.58;;;11.70;73.80;;;;;;4977186;28;20041;-64
2022/05/30 00:37:06;;;;;;;3.40;1.08;;;11.70;73.90;;;;;;4976700;28;20101;-64
2022/05/30 00:39:32;;;;;;;6.18;1.40;;;11.80;73.80;;;;;;4976903;28;20050;-64
2022/05/30 00:42:14;;;;;;;2.45;1.20;;;11.70;74.40;;;;;;4976862;28;20041;-74
2022/05/30 00:44:41;;;;;;;3.70;1.40;;;11.80;73.80;;;;;;4976708;28;20051;-68
2022/05/30 00:47:07;;;;;;;4.72;1.60;;;11.80;74.10;;;;;;4976285;28;20047;-64
2022/05/30 00:49:35;;;;;;;4.03;1.35;;;11.80;74.50;;;;;;4976852;28;20049;-68
2022/05/30 00:52:05;;;;;;;4.70;1.17;;;11.80;74.70;;;;;;4976911;28;20049;-73
2022/05/30 00:54:43;;;;;;;4.60;1.38;;;11.80;75.40;;;;;;4976828;28;20031;-74
2022/05/30 00:57:21;;;;;;;3.38;1.38;;;11.80;76.10;;;;;;4976755;28;20034;-73
2022/05/30 00:59:51;;;;;;;3.55;1.48;;;11.80;77.20;;;;;;4976679;28;20051;-73
2022/05/30 01:02:17;;;;;;;6.53;1.27;;;11.70;77.30;;;;;;4976402;28;20502;-64
2022/05/30 01:07:27;;;;;;;5.38;1.30;;;11.70;77.70;;;;;;4976453;28;20169;-65
2022/05/30 01:09:55;;;;;;;3.22;1.30;;;11.70;78.00;;;;;;4976646;28;20101;-65
2022/05/30 01:12:36;;;;;;;5.80;1.40;;;11.60;77.80;;;;;;4976493;28;20042;-66
2022/05/30 01:15:04;;;;;;;3.10;1.30;;;11.70;78.60;;;;;;4976009;28;20129;-73
2022/05/30 01:17:31;;;;;;;3.33;1.38;;;11.60;77.70;;;;;;4976394;28;20043;-64
2022/05/30 01:20:14;;;;;;;3.92;1.20;;;11.60;77.90;;;;;;4976239;28;20102;-65
2022/05/30 01:22:49;;;;;;;3.60;1.27;;;11.50;78.30;;;;;;4976224;28;20043;-65
2022/05/30 01:25:21;;;;;;;2.05;1.20;;;11.50;78.20;;;;;;4976129;28;20053;-64
2022/05/30 01:27:53;;;;;;;3.90;1.45;;;11.50;78.90;;;;;;4976276;28;20070;-64
2022/05/30 01:30:19;;;;;;;5.88;1.30;;;11.50;78.50;;;;;;4976203;28;20074;-64
2022/05/30 01:32:46;;;;;;;3.83;1.83;;;11.60;79.30;;;;;;4976146;28;20046;-64
2022/05/30 01:35:20;;;;;;;5.63;1.60;;;11.50;79.50;;;;;;4976135;28;20035;-73
2022/05/30 01:37:46;;;;;;;5.60;1.60;;;11.60;79.60;;;;;;4975934;28;20039;-70
2022/05/30 01:40:12;;;;;;;4.85;1.13;;;11.60;80.30;;;;;;4975952;28;20506;-74
2022/05/30 01:42:37;;;;;;;6.03;1.77;;;11.70;82.40;;;;;;4975955;28;20042;-64
2022/05/30 01:45:04;;;;;;;5.47;1.40;;;11.70;82.40;;;;;;4975790;28;20391;-70
2022/05/30 01:47:30;;;;;;;4.78;1.45;;;11.60;82.90;;;;;;4975927;28;20081;-72
2022/05/30 01:49:56;;;;;;;4.15;1.30;;;11.60;79.20;;;;;;4975797;28;20434;-64
2022/05/30 01:52:21;;;;;;;3.50;1.23;;;11.60;79.20;;;;;;4975789;28;20046;-66
2022/05/30 01:54:47;;;;;;;4.00;1.35;;;11.50;81.80;;;;;;4975493;28;20042;-65
2022/05/30 01:57:13;;;;;;;2.33;1.20;;;11.40;80.60;;;;;;4975747;28;20169;-73
2022/05/30 01:59:39;;;;;;;3.30;1.08;;;11.40;79.70;;;;;;4974603;28;20054;-71
2022/05/30 02:02:05;;;;;;;5.55;1.67;;;11.40;79.80;;;;;;4975535;28;20053;-74
2022/05/30 02:04:30;;;;;;;4.18;1.10;;;11.60;80.20;;;;;;4975282;28;20109;-72
2022/05/30 02:06:56;;;;;;;4.90;1.50;;;11.60;79.50;;;;;;4975488;28;20090;-64
2022/05/30 02:09:23;;;;;;;2.95;1.13;;;11.60;78.60;;;;;;4974643;28;20127;-65
2022/05/30 02:11:49;;;;;;;3.42;1.20;;;11.60;78.70;;;;;;4975472;28;20048;-65
2022/05/30 02:14:15;;;;;;;6.03;1.70;;;11.70;79.00;;;;;;4975292;28;20046;-72
2022/05/30 02:19:44;;;;;;;2.65;1.35;;;11.60;80.60;;;;;;4975077;28;20146;-65
2022/05/30 02:22:15;;;;;;;4.03;1.20;;;11.60;80.60;;;;;;4975060;28;20043;-65
2022/05/30 02:24:41;;;;;;;4.38;1.50;;;11.50;81.50;;;;;;4975094;28;20139;-73
2022/05/30 02:27:10;;;;;;;4.63;1.30;;;11.20;81.10;;;;;;4975295;28;20046;-65
2022/05/30 02:29:36;;;;;;;3.53;1.30;;;11.20;81.40;;;;;;4975091;28;20047;-74
2022/05/30 02:32:02;;;;;;;3.58;1.45;;;11.20;80.80;;;;;;4974638;28;20047;-64
2022/05/30 02:37:13;;;;;;;2.15;1.08;;;11.00;81.10;;;;;;4975034;28;20077;-74
2022/05/30 02:39:38;;;;;;;3.50;1.20;;;11.10;81.70;;;;;;4975036;28;20397;-74
2022/05/30 02:42:06;;;;;;;3.97;1.38;;;10.90;81.50;;;;;;4974950;28;20126;-72
2022/05/30 02:44:32;;;;;;;4.38;2.10;;;10.80;81.80;;;;;;4974989;28;20125;-73
2022/05/30 02:46:58;;;;;;;2.78;1.40;;;10.80;82.20;;;;;;4974418;28;20090;-64
2022/05/30 02:49:24;;;;;;;3.72;1.17;;;10.80;82.10;;;;;;4974622;28;20512;-64
2022/05/30 02:51:51;;;;;;;3.72;1.30;;;10.70;83.20;;;;;;4974982;28;20105;-64
2022/05/30 02:54:18;;;;;;;4.78;1.45;;;10.70;82.30;;;;;;4974933;28;20054;-64
2022/05/30 02:56:49;;;;;;;2.60;0.95;;;10.70;83.10;;;;;;4974808;28;20066;-65
2022/05/30 02:59:15;;;;;;;7.78;1.30;;;10.60;82.60;;;;;;4974917;28;20137;-64
2022/05/30 03:01:41;;;;;;;3.15;1.30;;;10.60;83.00;;;;;;4974858;28;20109;-65
2022/05/30 03:04:07;;;;;;;4.55;1.85;;;10.60;83.60;;;;;;4974936;28;20059;-74
2022/05/30 03:06:33;;;;;;;2.97;1.30;;;10.50;83.20;;;;;;4974933;28;20425;-64
2022/05/30 03:08:59;;;;;;;3.95;1.30;;;10.30;83.40;;;;;;4974914;28;20494;-64
2022/05/30 03:11:25;;;;;;;3.40;1.25;;;10.30;83.80;;;;;;4977717;28;20050;-69
2022/05/30 03:13:52;;;;;;;5.13;1.52;;;10.30;83.60;;;;;;4978486;28;20034;-67
2022/05/30 03:16:17;;;;;;;3.33;1.08;;;10.40;83.80;;;;;;4978644;28;20047;-65
2022/05/30 03:18:43;;;;;;;5.32;1.00;;;10.40;84.30;;;;;;4978468;28;20090;-64
2022/05/30 03:21:10;;;;;;;6.35;1.30;;;10.20;85.30;;;;;;4978307;28;20047;-74
2022/05/30 03:23:36;;;;;;;3.80;1.42;;;10.00;84.60;;;;;;4978289;28;20449;-68
2022/05/30 03:26:02;;;;;;;4.13;1.20;;;10.00;84.60;;;;;;4978182;28;20050;-65
2022/05/30 03:28:28;;;;;;;3.80;1.40;;;10.00;85.00;;;;;;4978183;28;20525;-65
2022/05/30 03:30:55;;;;;;;8.02;1.58;;;9.80;86.00;;;;;;4978361;28;20047;-74
2022/05/30 03:33:21;;;;;;;27.65;1.92;;;9.80;85.90;;;;;;4978316;28;20035;-66
2022/05/30 03:35:47;;;;;;;2.65;1.13;;;9.80;86.70;;;;;;4978304;28;20046;-65
2022/05/30 03:38:13;;;;;;;6.57;1.52;;;9.70;87.40;;;;;;4978348;28;20031;-65
2022/05/30 03:40:39;;;;;;;3.33;1.30;;;9.80;87.50;;;;;;4978133;28;20133;-67
2022/05/30 03:43:09;;;;;;;3.33;1.27;;;9.70;88.00;;;;;;4977634;28;20042;-68
2022/05/30 03:45:40;;;;;;;4.22;1.42;;;9.70;89.30;;;;;;4977862;28;20097;-66
2022/05/30 03:48:07;;;;;;;6.57;1.70;;;9.70;88.20;;;;;;4977744;28;20047;-65
2022/05/30 03:50:33;;;;;;;4.70;1.50;;;9.80;87.70;;;;;;4977923;28;20395;-74
2022/05/30 03:53:04;;;;;;;8.60;2.22;;;9.60;87.70;;;;;;4977802;28;20043;-70
2022/05/30 03:55:34;;;;;;;7.47;1.40;;;9.60;88.30;;;;;;4977837;28;20078;-66
2022/05/30 03:58:04;;;;;;;6.03;1.63;;;9.60;88.40;;;;;;4977775;28;20114;-65
2022/05/30 04:00:31;;;;;;;3.78;1.40;;;9.80;88.10;;;;;;4977831;28;20050;-64
2022/05/30 04:02:58;;;;;;;7.43;1.38;;;9.90;87.80;;;;;;4977868;28;20038;-65
2022/05/30 04:05:24;;;;;;;4.10;1.20;;;9.90;88.10;;;;;;4977517;28;20120;-65
2022/05/30 04:07:50;;;;;;;3.97;1.60;;;9.90;88.20;;;;;;4977522;28;20051;-64
2022/05/30 04:10:16;;;;;;;4.18;1.20;;;9.90;88.80;;;;;;4977413;28;20039;-65
2022/05/30 04:12:42;;;;;;;4.05;1.35;;;9.90;90.70;;;;;;4977365;28;20042;-65
2022/05/30 04:15:18;;;;;;;4.28;1.58;;;9.70;89.90;;;;;;4977437;28;20042;-74
2022/05/30 04:17:44;;;;;;;5.15;1.90;;;9.60;90.50;;;;;;4977480;28;20043;-65
2022/05/30 04:20:10;;;;;;;4.45;1.73;;;9.50;90.10;;;;;;4977314;28;20093;-65
2022/05/30 04:22:36;;;;;;;3.42;1.15;;;9.60;90.70;;;;;;4976355;28;20045;-75
2022/05/30 04:25:02;;;;;;;2.63;1.05;;;9.50;90.40;;;;;;4977456;28;20034;-74
2022/05/30 04:27:28;;;;;;;5.53;1.42;;;9.40;90.90;;;;;;4977073;28;20062;-64
2022/05/30 04:29:54;;;;;;;4.65;1.60;;;9.20;91.00;;;;;;4977297;28;20047;-64
2022/05/30 04:32:20;;;;;;;5.53;1.70;;;9.30;99.90;;;;;;4976361;28;20134;-64
2022/05/30 04:34:46;;;;;;;3.90;1.40;;;9.20;99.90;;;;;;4976595;28;20054;-65
2022/05/30 04:37:12;;;;;;;5.63;1.67;;;9.20;98.90;;;;;;4977030;28;20121;-64
2022/05/30 04:39:38;;;;;;;5.55;1.40;;;9.10;98.50;;;;;;4976596;28;20046;-64
2022/05/30 04:42:05;;;;;;;4.22;1.80;;;9.10;97.70;;;;;;4976315;28;20038;-64
2022/05/30 04:44:31;;;;;;;4.18;1.48;;;9.10;97.60;;;;;;4976279;28;20177;-65
2022/05/30 04:46:58;;;;;;;4.88;1.73;;;9.10;97.10;;;;;;4990942;28;20135;-65
2022/05/30 04:49:26;;;;;;;4.68;1.15;;;9.20;96.90;;;;;;4976132;28;20043;-64
2022/05/30 04:51:53;;;;;;;4.28;1.80;;;9.20;96.50;;;;;;4976199;28;20070;-65
2022/05/30 04:54:20;;;;;;;5.00;1.65;;;9.20;96.60;;;;;;4975981;28;20868;-74
2022/05/30 04:56:46;;;;;;;4.05;1.40;;;9.40;96.00;;;;;;4976200;28;20035;-64
2022/05/30 04:59:13;;;;;;;5.53;1.58;;;9.50;95.70;;;;;;4976174;28;20042;-66
2022/05/30 05:01:39;;;;;;;3.20;1.48;;;9.70;95.30;;;;;;4975189;28;20118;-64
2022/05/30 05:04:08;;;;;;;5.13;1.40;;;9.80;95.40;;;;;;4975819;28;20066;-64
2022/05/30 05:06:34;;;;;;;8.10;2.45;;;9.90;95.00;;;;;;4975688;28;20054;-64
2022/05/30 05:09:23;;;;;;;3.90;1.60;;;10.10;94.80;;;;;;4975546;28;20564;-75
2022/05/30 05:11:48;;;;;;;3.00;1.48;;;10.30;94.20;;;;;;4976196;28;20051;-65
2022/05/30 05:14:18;;;;;;;3.22;1.55;;;10.50;91.60;;;;;;4976028;28;20380;-65
2022/05/30 05:16:44;;;;;;;4.80;1.35;;;10.70;90.40;;;;;;4976422;28;20068;-75
2022/05/30 05:19:10;;;;;;;3.38;1.23;;;10.90;88.00;;;;;;4976373;28;20046;-65
2022/05/30 05:21:38;;;;;;;9.23;1.70;;;10.90;90.50;;;;;;4975838;28;20046;-64
2022/05/30 05:24:07;;;;;;;6.65;1.88;;;11.20;90.70;;;;;;4975859;28;20117;-64
2022/05/30 05:26:33;;;;;;;5.03;1.40;;;11.40;89.50;;;;;;4975983;28;20109;-64
2022/05/30 05:29:00;;;;;;;2.40;1.25;;;11.50;91.10;;;;;;4975830;28;20608;-67
2022/05/30 05:31:33;;;;;;;6.90;1.60;;;11.60;90.50;;;;;;4975714;28;20047;-74
2022/05/30 05:34:00;;;;;;;10.00;5.15;;;11.50;90.30;;;;;;4974584;28;20039;-72
2022/05/30 05:36:31;;;;;;;6.50;1.67;;;11.40;90.60;;;;;;4975656;28;20059;-75
2022/05/30 05:38:57;;;;;;;;;;;11.80;90.60;;;;;;4975154;28;20066;-65
2022/05/30 05:41:23;;;;;;;5.93;1.27;;;12.20;88.70;;;;;;4974216;28;19948;-65
2022/05/30 05:43:49;;;;;;;5.97;1.48;;;12.30;88.00;;;;;;4975236;28;20052;-79
2022/05/30 05:46:18;;;;;;;4.15;1.48;;;12.60;89.20;;;;;;4968554;28;20060;-66
2022/05/30 05:48:44;;;;;;;6.38;1.70;;;12.90;87.50;;;;;;4960497;28;20452;-66
2022/05/30 05:51:13;;;;;;;7.97;1.70;;;13.10;86.90;;;;;;4955419;28;20069;-66
2022/05/30 05:53:40;;;;;;;8.38;1.50;;;13.30;87.20;;;;;;4954235;28;20042;-66
2022/05/30 05:56:20;;;;;;;8.60;2.13;;;13.50;88.50;;;;;;4954503;28;20078;-82
2022/05/30 05:58:46;;;;;;;8.02;1.60;;;13.50;88.40;;;;;;4954342;28;20526;-66
2022/05/30 06:01:25;;;;;;;11.82;1.92;;;13.50;87.10;;;;;;4955172;28;20063;-65
2022/05/30 06:03:57;;;;;;;10.77;2.17;;;13.50;87.40;;;;;;4955218;28;20110;-76
2022/05/30 06:06:23;;;;;;;6.68;2.30;;;13.60;86.10;;;;;;4955710;28;20470;-66
2022/05/30 06:08:50;;;;;;;4.82;1.60;;;13.80;87.50;;;;;;4954175;28;20415;-66
2022/05/30 06:11:16;;;;;;;4.97;1.83;;;13.90;88.30;;;;;;4954135;28;20054;-66
2022/05/30 06:13:45;;;;;;;5.63;2.17;;;13.40;86.10;;;;;;4972936;28;20043;-66
2022/05/30 06:16:15;;;;;;;2.72;1.35;;;13.60;86.30;;;;;;4974931;28;20042;-66
2022/05/30 06:18:42;;;;;;;6.15;1.45;;;14.10;86.60;;;;;;4975285;28;20038;-67
2022/05/30 06:21:08;;;;;;;7.28;2.28;;;14.60;85.80;;;;;;4974247;28;20705;-70
2022/05/30 06:23:34;;;;;;;6.13;1.92;;;14.80;87.00;;;;;;4973221;28;20034;-68
2022/05/30 06:26:07;;;;;;;6.57;2.38;;;14.80;85.40;;;;;;4974177;28;20054;-67
2022/05/30 06:28:35;;;;;;;6.60;1.77;;;14.60;84.50;;;;;;4973316;28;20038;-67
2022/05/30 06:31:05;;;;;;;6.72;1.58;;;14.80;88.30;;;;;;4973236;28;20685;-66
2022/05/30 06:33:30;;;;;;;6.83;2.37;;;14.70;86.90;;;;;;4972946;28;20049;-76
2022/05/30 06:35:56;;;;;;;6.45;1.77;;;14.80;87.90;;;;;;4973173;28;20039;-77
2022/05/30 06:38:22;;;;;;;5.43;1.67;;;15.00;87.80;;;;;;4972893;28;20394;-76
2022/05/30 06:40:48;;;;;;;3.92;1.45;;;14.90;86.00;;;;;;4972721;28;20047;-67
2022/05/30 06:43:14;;;;;;;4.88;1.65;;;15.10;87.50;;;;;;4973869;28;20042;-77
2022/05/30 06:45:45;;;;;;;10.80;1.38;;;15.00;85.70;;;;;;4976675;28;20467;-76
2022/05/30 06:48:12;;;;;;;5.55;1.50;;;15.30;87.90;;;;;;4978543;28;20030;-68
2022/05/30 06:50:37;;;;;;;3.00;1.30;;;15.50;86.70;;;;;;4976908;28;20054;-76
2022/05/30 06:53:03;;;;;;;5.65;1.70;;;15.60;85.30;;;;;;4976730;28;20042;-66
2022/05/30 06:55:31;;;;;;;8.57;1.60;;;15.70;84.90;;;;;;4976909;28;20086;-76
2022/05/30 06:58:12;;;;;;;3.67;1.50;;;15.40;83.50;;;;;;4976615;28;20031;-67
2022/05/30 07:00:38;;;;;;;6.63;1.73;;;15.70;84.70;;;;;;4975081;28;20129;-76
2022/05/30 07:03:04;;;;;;;5.10;1.50;;;15.90;83.80;;;;;;4977099;28;20139;-77
2022/05/30 07:05:30;;;;;;;3.65;1.10;;;16.10;84.10;;;;;;4976536;28;20458;-76
2022/05/30 07:07:56;;;;;;;5.88;1.52;;;16.20;83.60;;;;;;4976008;28;20101;-68
2022/05/30 07:10:23;;;;;;;7.43;1.48;;;16.30;82.60;;;;;;4976452;28;20123;-75
2022/05/30 07:12:49;;;;;;;4.28;1.40;;;16.50;83.20;;;;;;4977886;28;20443;-67
2022/05/30 07:15:15;;;;;;;2.63;1.05;;;16.60;83.30;;;;;;4976722;28;20058;-66
2022/05/30 07:17:41;;;;;;;4.05;1.38;;;16.60;81.70;;;;;;4976596;28;20395;-67
2022/05/30 07:20:07;;;;;;;2.67;1.38;;;16.90;81.50;;;;;;4976893;28;20042;-75
2022/05/30 07:22:33;;;;;;;5.70;1.60;;;16.70;81.10;;;;;;4975699;28;20038;-67
2022/05/30 07:24:59;;;;;;;3.58;1.60;;;17.00;82.50;;;;;;4976038;28;20047;-67
2022/05/30 07:27:25;;;;;;;4.75;1.40;;;17.20;79.50;;;;;;4976331;28;20391;-76
2022/05/30 07:29:51;;;;;;;5.10;1.55;;;17.00;80.00;;;;;;4977867;28;20479;-76
2022/05/30 07:32:17;;;;;;;7.82;1.60;;;17.00;78.90;;;;;;4977584;28;20386;-72
2022/05/30 07:34:43;;;;;;;5.03;1.30;;;17.10;81.50;;;;;;4975822;28;20101;-66
2022/05/30 07:37:09;;;;;;;5.30;1.35;;;17.30;80.50;;;;;;4976166;28;20045;-76
2022/05/30 07:39:36;;;;;;;5.10;1.70;;;17.60;79.90;;;;;;4977255;28;20042;-67
2022/05/30 07:42:03;;;;;;;5.28;1.50;;;17.30;80.20;;;;;;4977674;28;20045;-66
2022/05/30 07:44:29;;;;;;;3.63;1.73;;;17.50;79.80;;;;;;4977388;28;20051;-67
2022/05/30 07:46:56;;;;;;;6.57;1.90;;;17.20;76.70;;;;;;4975683;28;20430;-66
2022/05/30 07:49:22;;;;;;;4.25;1.58;;;17.70;78.10;;;;;;4976088;28;20108;-66
2022/05/30 07:51:47;;;;;;;3.60;1.33;;;17.60;77.10;;;;;;4975427;28;20503;-67
2022/05/30 07:54:14;;;;;;;6.65;1.60;;;;;;;;;;4977224;28;20075;-77
2022/05/30 07:56:39;;;;;;;7.53;2.08;;;18.20;76.00;;;;;;4975508;28;20514;-77
2022/05/30 07:59:06;;;;;;;17.00;9.90;;;16.60;76.30;;;;;;4975505;28;20050;-67
2022/05/30 08:01:32;;;;;;;6.40;1.95;;;17.40;78.90;;;;;;4975551;28;20105;-66
2022/05/30 08:03:58;;;;;;;7.95;2.13;;;18.10;76.60;;;;;;4976430;28;20519;-66
2022/05/30 08:06:28;;;;;;;11.73;2.25;;;18.30;75.60;;;;;;4976110;28;20411;-67
2022/05/30 08:08:54;;;;;;;8.57;2.15;;;18.60;76.00;;;;;;4975161;28;20096;-74
2022/05/30 08:11:22;;;;;;;3.72;1.08;;;18.80;76.50;;;;;;4975128;28;20047;-74
2022/05/30 08:13:49;;;;;;;3.53;1.23;;;18.70;73.10;;;;;;4975373;28;20125;-66
2022/05/30 08:16:18;;;;;;;7.72;1.42;;;18.60;72.90;;;;;;4975594;28;20042;-73
2022/05/30 08:18:44;;;;;;;5.20;1.52;;;18.10;72.40;;;;;;4975009;28;20403;-69
2022/05/30 08:21:11;;;;;;;5.47;1.48;;;17.70;74.30;;;;;;4976770;28;20043;-74
2022/05/30 08:23:36;;;;;;;4.40;1.55;;;17.60;73.20;;;;;;4977226;28;20086;-66
2022/05/30 08:26:03;;;;;;;4.45;1.42;;;17.70;75.70;;;;;;4975110;28;20447;-65
2022/05/30 08:28:29;;;;;;;8.55;1.58;;;18.10;73.80;;;;;;4974227;28;20391;-65
2022/05/30 08:30:55;;;;;;;3.40;1.10;;;18.10;74.00;;;;;;4973876;28;20047;-73
2022/05/30 08:33:22;;;;;;;3.17;1.38;;;17.70;72.50;;;;;;4974035;28;20046;-66
2022/05/30 08:35:59;;;;;;;7.78;1.52;;;18.70;73.00;;;;;;4974245;28;20031;-65
2022/05/30 08:38:25;;;;;;;3.13;1.13;;;19.00;70.00;;;;;;4972634;28;20406;-66
2022/05/30 08:43:38;;;;;;;8.65;1.40;;;18.60;71.80;;;;;;4975068;28;20156;-66
2022/05/30 08:46:13;;;;;;;1.85;1.02;;;18.90;71.60;;;;;;4973621;28;20058;-66
2022/05/30 08:49:06;;;;;;;7.22;1.60;;;19.20;68.50;;;;;;4972619;28;20470;-66
2022/05/30 08:51:45;;;;;;;3.42;1.48;;;18.80;70.10;;;;;;4973721;28;20388;-71
2022/05/30 08:54:52;;;;;;;8.20;1.50;;;19.30;71.80;;;;;;4976678;28;20039;-70
2022/05/30 08:57:50;;;;;;;2.70;1.38;;;19.10;70.60;;;;;;4974480;28;20046;-70
2022/05/30 09:00:20;;;;;;;4.70;1.55;;;19.20;73.50;;;;;;4974135;28;20097;-65
2022/05/30 09:03:06;;;;;;;5.57;2.08;;;18.70;68.50;;;;;;4975320;28;20042;-66
2022/05/30 09:05:41;;;;;;;4.93;1.40;;;18.80;72.50;;;;;;4974150;28;20446;-67
2022/05/30 09:08:13;;;;;;;5.05;1.20;;;19.20;74.80;;;;;;4973465;28;20125;-65
2022/05/30 09:10:55;;;;;;;6.43;1.60;;;20.10;72.70;;;;;;4974537;28;20402;-66
2022/05/30 09:13:45;;;;;;;4.88;1.55;;;20.40;71.70;;;;;;4975602;28;20054;-65
2022/05/30 09:16:26;;;;;;;7.40;1.13;;;20.40;71.10;;;;;;4976088;28;20046;-74
2022/05/30 09:18:53;;;;;;;2.97;1.30;;;19.70;69.80;;;;;;4973894;28;20507;-72
2022/05/30 09:21:22;;;;;;;4.70;1.17;;;18.80;70.30;;;;;;4974244;28;20038;-74
2022/05/30 09:23:48;;;;;;;4.43;1.20;;;19.10;72.40;;;;;;4975500;28;20089;-74
2022/05/30 09:26:18;;;;;;;4.53;1.35;;;18.60;72.60;;;;;;4975591;28;20388;-73
2022/05/30 09:28:46;;;;;;;2.95;1.40;;;19.30;72.00;;;;;;4970765;28;20051;-64
2022/05/30 09:31:21;;;;;;;2.70;1.50;;;17.90;71.40;;;;;;4967620;28;20046;-75
2022/05/30 09:33:53;;;;;;;3.60;1.40;;;18.60;71.30;;;;;;4973474;28;20047;-65
2022/05/30 09:36:28;;;;;;;6.07;1.48;;;18.50;70.80;;;;;;4973606;28;20061;-63
2022/05/30 09:39:19;;;;;;;5.38;1.20;;;19.30;71.60;;;;;;4973238;28;20050;-73
2022/05/30 09:41:55;;;;;;;7.95;1.65;;;19.30;70.30;;;;;;4970346;28;20081;-64
2022/05/30 09:44:39;;;;;;;5.60;1.52;;;18.40;72.00;;;;;;4972945;28;20499;-71
2022/05/30 09:47:13;;;;;;;4.65;1.50;;;18.10;73.50;;;;;;4972451;28;20620;-68
2022/05/30 09:49:48;;;;;;;2.55;1.30;;;18.90;73.00;;;;;;4973544;28;20065;-65
2022/05/30 09:52:36;;;;;;;6.38;1.40;;;19.40;73.50;;;;;;4973542;28;20100;-65
2022/05/30 09:55:26;;;;;;;2.72;1.15;;;19.80;73.80;;;;;;4973551;28;20502;-71
2022/05/30 09:57:53;;;;;;;3.57;1.40;;;19.20;70.30;;;;;;4972894;28;20108;-77
2022/05/30 10:00:21;;;;;;;3.88;0.93;;;18.60;70.30;;;;;;4987724;28;20680;-77
2022/05/30 10:03:10;;;;;;;5.18;1.30;;;19.20;73.60;;;;;;4974114;28;20074;-74
2022/05/30 10:05:38;;;;;;;3.67;1.20;;;19.20;72.40;;;;;;4988474;28;20077;-70
2022/05/30 10:08:21;;;;;;;4.90;1.33;;;18.20;71.30;;;;;;4972792;28;20387;-73
2022/05/30 10:10:53;;;;;;;3.30;1.15;;;19.10;73.30;;;;;;4970999;28;20055;-65
2022/05/30 10:13:41;;;;;;;3.70;1.10;;;20.10;73.00;;;;;;4971635;28;20430;-68
2022/05/30 10:16:15;;;;;;;6.75;1.40;;;19.20;70.00;;;;;;4972700;28;20047;-65
2022/05/30 10:18:59;;;;;;;4.65;1.30;;;18.30;72.10;;;;;;4972369;28;20221;-76
2022/05/30 10:21:37;;;;;;;3.83;1.20;;;18.00;72.70;;;;;;4953496;28;20130;-73
2022/05/30 10:30:41;;;;;;;2.72;1.08;;;17.20;73.50;;;;;;4953939;28;20042;-69
2022/05/30 10:33:28;;;;;;;3.35;1.48;;;17.20;73.50;;;;;;4970552;28;20053;-64
2022/05/30 10:36:05;;;;;;;4.25;1.48;;;17.70;72.50;;;;;;4973381;28;20121;-75
2022/05/30 10:38:49;;;;;;;6.32;1.35;;;17.80;72.50;;;;;;4973581;28;20383;-64
2022/05/30 10:41:27;;;;;;;2.22;1.25;;;18.20;74.30;;;;;;4972949;28;20038;-72
2022/05/30 10:44:13;;;;;;;3.63;1.15;;;18.60;72.80;;;;;;4972223;28;20061;-74
2022/05/30 10:46:53;;;;;;;3.47;1.35;;;18.90;70.70;;;;;;4972741;28;20085;-74
2022/05/30 10:49:24;;;;;;;6.28;1.10;;;19.80;74.20;;;;;;4972798;28;20046;-73
2022/05/30 10:52:05;;;;;;;8.30;1.92;;;19.70;71.90;;;;;;4972380;28;20043;-73
2022/05/30 10:54:39;;;;;;;5.18;1.23;;;19.90;71.00;;;;;;4972541;28;20041;-70
2022/05/30 10:57:13;;;;;;;3.10;1.40;;;20.00;72.70;;;;;;4972629;28;20058;-67
2022/05/30 10:59:39;;;;;;;4.28;1.25;;;20.20;71.50;;;;;;4973760;28;20125;-65
2022/05/30 11:02:42;;;;;;;7.47;1.42;;;19.80;70.20;;;;;;4975000;28;20129;-65
2022/05/30 11:05:23;;;;;;;6.03;1.45;;;19.00;70.00;;;;;;4972804;28;20050;-64
2022/05/30 11:08:05;;;;;;;3.65;1.27;;;19.20;73.10;;;;;;4972304;28;20051;-75
2022/05/30 11:10:43;;;;;;;5.40;1.85;;;19.10;71.40;;;;;;4972426;28;20042;-74
2022/05/30 11:13:35;;;;;;;5.07;1.80;;;18.70;71.00;;;;;;4972455;28;20126;-71
2022/05/30 11:16:19;;;;;;;3.53;1.17;;;19.30;72.10;;;;;;4972620;28;20049;-63
2022/05/30 11:18:57;;;;;;;5.82;1.58;;;19.50;70.20;;;;;;4971912;28;20510;-74
2022/05/30 11:21:51;;;;;;;3.67;1.40;;;19.30;71.10;;;;;;4972446;28;20047;-73
2022/05/30 11:24:17;;;;;;;3.30;1.38;;;19.10;70.20;;;;;;4972696;28;20133;-63
2022/05/30 11:27:14;;;;;;;5.32;1.58;;;18.80;70.80;;;;;;4971522;28;20046;-63
2022/05/30 11:29:59;;;;;;;3.78;1.45;;;18.80;71.10;;;;;;4972177;28;20579;-74
2022/05/30 11:32:37;;;;;;;3.60;1.05;;;19.70;72.30;;;;;;4975231;28;20061;-63
2022/05/30 11:35:24;;;;;;;2.85;1.05;;;19.80;70.70;;;;;;4975801;28;20126;-65
2022/05/30 11:38:02;;;;;;;4.53;1.33;;;19.20;69.70;;;;;;4975803;28;20038;-63
2022/05/30 11:40:32;;;;;;;4.55;1.38;;;18.40;70.40;;;;;;4975947;28;20042;-63
2022/05/30 11:43:07;;;;;;;;;;;18.80;71.80;;;;;;4976132;28;20085;-72
2022/05/30 11:45:51;;;;;;;4.32;1.67;;;19.30;70.50;;;;;;4973532;28;19921;-70
2022/05/30 11:48:47;;;;;;;6.55;1.60;;;19.50;69.10;;;;;;4975578;28;20458;-64
2022/05/30 11:51:46;;;;;;;4.60;1.50;;;19.70;68.60;;;;;;4975238;28;20042;-63
2022/05/30 11:54:27;;;;;;;4.45;1.20;;;;;;;;;;4974880;28;20066;-64
2022/05/30 11:57:27;;;;;;;4.53;1.38;;;19.90;67.70;;;;;;4975237;28;20113;-65
2022/05/30 12:00:02;;;;;;;1.92;1.02;;;;;;;;;;4969700;28;20050;-67
2022/05/30 12:02:59;;;;;;;5.40;1.50;;;21.00;69.80;;;;;;4965474;28;20058;-69
2022/05/30 12:05:44;;;;;;;4.38;1.60;;;20.20;68.70;;;;;;4958715;28;20479;-72
2022/05/30 12:08:43;;;;;;;4.97;1.50;;;20.10;69.20;;;;;;4974995;28;20070;-73
2022/05/30 12:11:25;;;;;;;5.85;1.40;;;20.50;69.00;;;;;;4975300;28;20522;-66
2022/05/30 12:14:15;;;;;;;3.85;1.23;;;20.10;70.60;;;;;;4973628;28;20094;-71
2022/05/30 12:17:09;;;;;;;10.95;1.55;;;19.70;70.80;;;;;;4974383;28;20046;-72
2022/05/30 12:25:34;;;;;;;5.18;1.27;;;19.60;70.60;;;;;;4975366;28;20041;-72
2022/05/30 12:28:01;;;;;;;3.42;1.15;;;19.30;70.30;;;;;;4975385;28;20046;-64
2022/05/30 12:30:42;;;;;;;3.10;1.10;;;19.50;69.90;;;;;;4975188;28;20034;-64
2022/05/30 12:33:29;;;;;;;3.88;1.77;;;19.60;68.40;;;;;;4975267;28;20066;-64
2022/05/30 12:36:10;;;;;;;4.35;2.00;;;19.70;69.80;;;;;;4974586;28;20043;-71
2022/05/30 12:38:53;;;;;;;6.25;1.20;;;19.40;70.20;;;;;;4974635;28;20035;-64
2022/05/30 12:41:34;;;;;;;4.10;1.30;;;19.50;69.10;;;;;;4974595;28;20046;-71
2022/05/30 12:44:00;;;;;;;4.13;1.52;;;19.60;69.40;;;;;;4974101;28;20050;-65
2022/05/30 12:46:28;;;;;;;3.85;1.33;;;19.50;69.30;;;;;;4974793;28;20113;-64
2022/05/30 12:49:15;;;;;;;5.50;1.50;;;19.60;69.10;;;;;;4974871;28;20543;-64
2022/05/30 12:52:01;;;;;;;3.22;1.08;;;18.90;67.80;;;;;;4976452;28;20184;-68
2022/05/30 12:54:36;;;;;;;8.40;1.50;;;19.10;69.50;;;;;;4975996;28;20499;-66
2022/05/30 12:57:11;;;;;;;3.50;1.17;;;19.40;69.50;;;;;;4976301;28;20046;-71
2022/05/30 13:00:00;;;;;;;3.58;1.20;;;19.90;69.70;;;;;;4974238;28;20081;-64
2022/05/30 13:03:15;;;;;;;6.90;1.65;;;19.70;69.00;;;;;;4974377;28;20490;-71
2022/05/30 13:05:45;;;;;;;4.88;1.20;;;19.40;67.30;;;;;;4962865;28;20047;-70
2022/05/30 13:08:46;;;;;;;1.48;1.05;;;19.40;69.70;;;;;;4974325;28;20427;-71
2022/05/30 13:11:25;;;;;;;2.85;1.10;;;19.20;67.50;;;;;;4974156;28;20031;-64
2022/05/30 13:13:55;;;;;;;5.63;1.13;;;18.70;68.30;;;;;;4974190;28;20056;-64
2022/05/30 13:16:40;;;;;;;4.07;1.38;;;19.00;69.30;;;;;;4974342;28;20134;-64
2022/05/30 13:19:11;;;;;;;3.97;1.17;;;18.90;69.40;;;;;;4974235;28;20545;-65
2022/05/30 13:21:40;;;;;;;5.00;1.33;;;18.90;69.10;;;;;;4973776;28;20043;-64
2022/05/30 13:24:31;;;;;;;7.85;2.00;;;18.80;68.30;;;;;;4973702;28;20577;-65
2022/05/30 13:26:57;;;;;;;6.80;1.50;;;18.90;68.60;;;;;;4974078;28;20153;-70
2022/05/30 13:29:31;;;;;;;11.02;1.67;;;19.00;71.90;;;;;;4974272;28;20046;-71
2022/05/30 13:31:58;;;;;;;6.75;1.40;;;19.30;71.10;;;;;;4973947;28;20119;-64
2022/05/30 13:34:28;;;;;;;2.47;1.23;;;19.30;70.20;;;;;;4976086;28;20385;-72
2022/05/30 13:36:55;;;;;;;4.05;1.55;;;19.30;69.00;;;;;;4975046;28;20129;-71